Time;durP1;ratioP1;P1;durP2;ratioP2;P2;SDS_P1;SDS_P2;PMS_P1;PMS_P2;Temp;Humidity;BMP_temperature;BMP_pressure;BME280_temperature;BME280_humidity;BME280_pressure;Samples;Min_cycle;Max_cycle;Signal;HPM_P1;HPM_P2
2022/12/22 03:26:22;;;;;;;2.90;1.20;;;;;;;;;;5029153;28;20048;-76
2022/12/22 03:28:48;;;;;;;1.92;1.13;;;;;;;;;;5028425;28;20021;-77
2022/12/22 03:31:14;;;;;;;1.83;1.13;;;;;;;;;;5027821;28;20049;-77
2022/12/22 03:33:40;;;;;;;1.20;1.08;;;;;;;;;;5030911;28;20872;-77
2022/12/22 03:36:07;;;;;;;2.75;1.33;;;;;;;;;;5026315;28;20033;-76
2022/12/22 03:38:33;;;;;;;1.40;0.98;;;;;;;;;;5039663;28;20039;-77
2022/12/22 03:40:59;;;;;;;1.23;1.13;;;;;;;;;;5027694;28;20022;-77
2022/12/22 03:48:39;;;;;;;1.23;1.02;;;;;;;;;;5028428;28;20043;-77
2022/12/22 03:51:06;;;;;;;1.92;1.20;;;;;;;;;;5025866;28;20028;-77
2022/12/22 03:53:32;;;;;;;2.30;1.10;;;;;;;;;;5029285;28;20278;-77
2022/12/22 03:55:57;;;;;;;1.13;1.02;;;;;;;;;;5025200;28;20096;-77
2022/12/22 03:58:23;;;;;;;1.35;0.90;;;;;;;;;;5027687;28;20026;-77
2022/12/22 04:00:49;;;;;;;1.17;1.05;;;;;;;;;;5026950;28;20029;-77
2022/12/22 04:03:18;;;;;;;2.10;1.23;;;;;;;;;;5027150;28;20071;-77
2022/12/22 04:05:45;;;;;;;2.65;1.38;;;;;;;;;;5028679;28;20025;-77
2022/12/22 04:08:10;;;;;;;1.10;1.00;;;;;;;;;;5026664;28;20038;-77
2022/12/22 04:13:39;;;;;;;1.63;1.10;;;;;;;;;;5024620;28;21010;-77
2022/12/22 04:16:05;;;;;;;0.93;0.88;;;;;;;;;;5028701;28;20476;-77
2022/12/22 04:18:31;;;;;;;1.30;1.10;;;;;;;;;;5023058;28;20024;-77
2022/12/22 04:20:57;;;;;;;1.90;1.17;;;;;;;;;;5031393;28;20898;-77
2022/12/22 04:23:23;;;;;;;1.10;1.00;;;;;;;;;;5029269;28;20531;-77
2022/12/22 04:25:49;;;;;;;1.48;1.13;;;;;;;;;;5028722;28;20105;-76
2022/12/22 04:28:15;;;;;;;1.27;1.13;;;;;;;;;;5027347;28;20021;-77
2022/12/22 04:30:41;;;;;;;2.13;1.30;;;;;;;;;;5027227;28;20415;-77
2022/12/22 04:33:07;;;;;;;2.50;1.30;;;;;;;;;;5022279;28;20389;-77
2022/12/22 04:35:33;;;;;;;1.13;1.00;;;;;;;;;;5028274;28;20408;-77
2022/12/22 04:37:59;;;;;;;1.52;1.08;;;;;;;;;;5023488;28;20022;-76
2022/12/22 04:40:25;;;;;;;1.80;1.10;;;;;;;;;;5026864;28;20508;-76
2022/12/22 04:42:51;;;;;;;1.20;1.10;;;;;;;;;;5025186;28;20018;-77
2022/12/22 04:45:17;;;;;;;1.42;1.00;;;;;;;;;;5030737;28;20033;-77
2022/12/22 04:47:43;;;;;;;1.23;1.00;;;;;;;;;;5025682;28;20044;-76
2022/12/22 04:50:09;;;;;;;2.47;0.80;;;;;;;;;;5031963;28;20033;-77
2022/12/22 04:52:35;;;;;;;1.20;1.10;;;;;;;;;;5031946;28;20032;-77
2022/12/22 04:55:01;;;;;;;1.08;0.80;;;;;;;;;;5034915;28;20372;-77
2022/12/22 04:57:27;;;;;;;1.33;1.02;;;;;;;;;;5030291;28;20047;-77
2022/12/22 04:59:54;;;;;;;1.48;1.20;;;;;;;;;;5039215;28;20373;-77
2022/12/22 05:02:20;;;;;;;1.02;1.00;;;;;;;;;;5028688;28;20022;-77
2022/12/22 05:04:46;;;;;;;1.58;1.17;;;;;;;;;;5029921;28;20034;-77
2022/12/22 05:07:12;;;;;;;1.35;1.10;;;;;;;;;;5032146;28;20687;-77
2022/12/22 05:09:38;;;;;;;1.10;0.80;;;;;;;;;;5029174;28;20036;-77
2022/12/22 05:12:53;;;;;;;1.13;1.00;;;;;;;;;;5029943;28;20360;-77
2022/12/22 05:14:50;;;;;;;1.25;1.00;;;;;;;;;;5032274;28;20396;-77
2022/12/22 05:17:16;;;;;;;1.13;1.02;;;;;;;;;;5027794;28;20049;-76
2022/12/22 05:19:42;;;;;;;1.58;1.08;;;;;;;;;;5027114;28;20030;-77
2022/12/22 05:22:08;;;;;;;1.50;1.20;;;;;;;;;;5027565;28;20025;-77
2022/12/22 05:24:34;;;;;;;1.38;1.15;;;;;;;;;;5030341;28;20049;-76
2022/12/22 05:27:00;;;;;;;1.20;1.02;;;;;;;;;;5026079;28;20079;-76
2022/12/22 05:29:26;;;;;;;1.10;1.00;;;;;;;;;;5027876;28;20384;-76
2022/12/22 05:31:52;;;;;;;1.10;0.95;;;;;;;;;;5027949;28;20487;-76
2022/12/22 05:34:18;;;;;;;0.80;0.80;;;;;;;;;;5030913;28;20040;-76
2022/12/22 05:36:47;;;;;;;1.85;1.00;;;;;;;;;;5027247;28;20037;-76
2022/12/22 05:39:13;;;;;;;1.17;1.00;;;;;;;;;;5027439;28;20041;-76
2022/12/22 05:41:39;;;;;;;0.90;0.90;;;;;;;;;;5025725;28;20029;-76
2022/12/22 05:44:05;;;;;;;2.83;1.27;;;;;;;;;;5027842;28;20032;-77
2022/12/22 05:46:37;;;;;;;1.52;1.00;;;;;;;;;;5028755;28;20060;-76
2022/12/22 05:49:03;;;;;;;1.30;0.90;;;;;;;;;;5032949;28;20021;-76
2022/12/22 05:51:28;;;;;;;1.33;1.10;;;;;;;;;;5026279;28;20030;-77
2022/12/22 05:53:54;;;;;;;1.35;1.25;;;;;;;;;;5029162;28;20496;-77
2022/12/22 05:56:20;;;;;;;1.10;0.90;;;;;;;;;;5021801;28;20374;-77
2022/12/22 05:58:46;;;;;;;1.40;1.10;;;;;;;;;;5029647;28;20029;-77
2022/12/22 06:01:12;;;;;;;1.30;1.00;;;;;;;;;;5028877;28;20504;-76
2022/12/22 06:03:38;;;;;;;2.05;0.98;;;;;;;;;;5028773;28;20083;-77
2022/12/22 06:06:04;;;;;;;2.30;1.40;;;;;;;;;;5029320;28;20033;-77
2022/12/22 06:08:30;;;;;;;1.90;1.10;;;;;;;;;;5028801;28;20476;-77
2022/12/22 06:10:57;;;;;;;1.42;1.20;;;;;;;;;;5026713;28;20063;-76
2022/12/22 06:13:23;;;;;;;1.33;1.10;;;;;;;;;;5029283;28;20110;-76
2022/12/22 06:15:49;;;;;;;1.63;1.08;;;;;;;;;;5026611;28;20100;-76
2022/12/22 06:18:15;;;;;;;1.40;1.20;;;;;;;;;;5038952;28;20129;-77
2022/12/22 06:20:41;;;;;;;1.80;1.10;;;;;;;;;;5026706;28;20564;-77
2022/12/22 06:23:19;;;;;;;1.67;1.10;;;;;;;;;;5023609;28;20514;-76
2022/12/22 06:25:55;;;;;;;1.45;0.93;;;;;;;;;;5024193;28;20029;-80
2022/12/22 06:28:21;;;;;;;1.20;1.10;;;;;;;;;;5025808;28;20092;-77
2022/12/22 06:30:47;;;;;;;1.13;1.00;;;;;;;;;;5023852;28;20054;-77
2022/12/22 06:33:13;;;;;;;2.85;1.10;;;;;;;;;;5023606;28;20033;-74
2022/12/22 06:35:40;;;;;;;1.10;1.00;;;;;;;;;;5025893;28;20413;-78
2022/12/22 06:38:05;;;;;;;2.85;1.35;;;;;;;;;;5022852;28;20029;-76
2022/12/22 06:40:34;;;;;;;1.50;1.00;;;;;;;;;;5023639;28;20092;-77
2022/12/22 06:43:10;;;;;;;2.20;1.17;;;;;;;;;;5029440;28;20159;-77
2022/12/22 06:45:37;;;;;;;2.50;1.30;;;;;;;;;;5027727;28;20025;-77
2022/12/22 06:48:03;;;;;;;1.33;1.10;;;;;;;;;;5037939;28;20491;-77
2022/12/22 06:50:29;;;;;;;2.10;1.20;;;;;;;;;;5030439;28;20037;-78
2022/12/22 06:52:55;;;;;;;2.15;1.17;;;;;;;;;;5028734;28;20503;-77
2022/12/22 06:55:21;;;;;;;2.17;1.33;;;;;;;;;;5028903;28;20037;-78
2022/12/22 06:57:47;;;;;;;1.55;1.13;;;;;;;;;;5029592;28;20491;-77
2022/12/22 07:00:13;;;;;;;1.65;1.30;;;;;;;;;;5028282;28;20687;-79
2022/12/22 07:02:39;;;;;;;1.83;1.13;;;;;;;;;;5027617;28;20033;-79
2022/12/22 07:05:06;;;;;;;1.73;1.20;;;;;;;;;;5027818;28;20056;-79
2022/12/22 07:07:31;;;;;;;3.80;1.40;;;;;;;;;;5029363;28;20052;-79
2022/12/22 07:09:57;;;;;;;1.58;1.27;;;;;;;;;;5034275;28;20033;-79
2022/12/22 07:12:23;;;;;;;2.45;1.23;;;;;;;;;;5029020;28;20029;-81
2022/12/22 07:14:50;;;;;;;1.85;1.27;;;;;;;;;;5033371;28;20083;-84
2022/12/22 07:17:15;;;;;;;1.27;1.10;;;;;;;;;;5033336;28;20031;-81
2022/12/22 07:19:41;;;;;;;1.10;1.00;;;;;;;;;;5035112;28;20404;-80
2022/12/22 07:22:10;;;;;;;1.63;1.38;;;;;;;;;;5030831;28;20527;-81
2022/12/22 07:24:41;;;;;;;1.50;1.08;;;;;;;;;;5029256;28;20432;-77
2022/12/22 07:27:14;;;;;;;3.15;0.90;;;;;;;;;;5020923;28;20487;-80
2022/12/22 07:29:40;;;;;;;1.55;1.20;;;;;;;;;;5021880;28;20029;-79
2022/12/22 07:32:06;;;;;;;1.80;1.30;;;;;;;;;;5027580;28;20052;-80
2022/12/22 07:34:33;;;;;;;3.22;1.20;;;;;;;;;;5016907;28;20030;-80
2022/12/22 07:36:59;;;;;;;3.28;1.30;;;;;;;;;;5021426;28;20172;-80
2022/12/22 07:39:24;;;;;;;3.50;1.67;;;;;;;;;;5023747;28;20029;-80
2022/12/22 07:44:35;;;;;;;5.03;1.83;;;;;;;;;;5027076;28;20420;-79
2022/12/22 07:47:01;;;;;;;3.88;1.63;;;;;;;;;;5025714;28;20021;-80
2022/12/22 07:52:12;;;;;;;6.68;2.25;;;;;;;;;;5025937;28;20032;-79
2022/12/22 07:54:38;;;;;;;3.63;1.88;;;;;;;;;;5025896;28;20025;-79
2022/12/22 07:57:04;;;;;;;3.20;1.80;;;;;;;;;;5025409;28;20071;-79
2022/12/22 07:59:30;;;;;;;3.25;1.60;;;;;;;;;;5022674;28;20021;-79
2022/12/22 08:01:56;;;;;;;3.00;1.48;;;;;;;;;;5024055;28;20018;-79
2022/12/22 08:04:22;;;;;;;3.65;1.60;;;;;;;;;;5026229;28;20032;-79
2022/12/22 08:06:48;;;;;;;2.88;1.63;;;;;;;;;;5024828;28;20032;-79
2022/12/22 08:09:16;;;;;;;4.55;1.90;;;;;;;;;;5025295;28;20100;-79
2022/12/22 08:11:42;;;;;;;2.92;1.73;;;;;;;;;;5023761;28;20074;-78
2022/12/22 08:14:08;;;;;;;2.28;1.50;;;;;;;;;;5025394;28;20389;-79
2022/12/22 08:16:34;;;;;;;2.08;1.55;;;;;;;;;;5025199;28;20384;-80
2022/12/22 08:19:00;;;;;;;1.90;1.30;;;;;;;;;;5025758;28;20022;-80
2022/12/22 08:21:26;;;;;;;3.20;1.73;;;;;;;;;;5025634;28;20024;-80
2022/12/22 08:23:52;;;;;;;3.78;1.73;;;;;;;;;;5023848;28;20037;-79
2022/12/22 08:26:21;;;;;;;2.53;1.60;;;;;;;;;;5028605;28;20025;-79
2022/12/22 08:28:52;;;;;;;3.95;1.92;;;;;;;;;;5030335;28;20025;-80
2022/12/22 08:31:19;;;;;;;2.35;1.40;;;;;;;;;;5022416;28;20416;-78
2022/12/22 08:33:45;;;;;;;2.65;1.67;;;;;;;;;;5027501;28;20527;-72
2022/12/22 08:36:11;;;;;;;3.90;2.08;;;;;;;;;;5030578;28;20074;-72
2022/12/22 08:38:39;;;;;;;4.75;2.05;;;;;;;;;;5031000;28;20380;-72
2022/12/22 08:41:05;;;;;;;4.40;2.00;;;;;;;;;;5039225;28;20566;-73
2022/12/22 08:43:32;;;;;;;4.88;1.95;;;;;;;;;;5032995;28;20021;-73
2022/12/22 08:45:58;;;;;;;4.93;1.92;;;;;;;;;;5032257;28;20035;-72
2022/12/22 08:48:24;;;;;;;3.30;2.13;;;;;;;;;;5028928;28;20500;-73
2022/12/22 08:50:50;;;;;;;3.50;1.70;;;;;;;;;;5036333;28;20480;-73
2022/12/22 08:53:16;;;;;;;3.35;1.60;;;;;;;;;;5032391;28;20021;-72
2022/12/22 08:55:49;;;;;;;4.78;1.90;;;;;;;;;;5032112;28;20425;-83
2022/12/22 08:58:15;;;;;;;3.58;1.92;;;;;;;;;;5038313;28;20029;-78
2022/12/22 09:00:41;;;;;;;3.40;1.88;;;;;;;;;;5030568;28;20088;-80
2022/12/22 09:03:08;;;;;;;4.05;2.05;;;;;;;;;;5030714;28;20075;-79
2022/12/22 09:05:54;;;;;;;2.63;1.92;;;;;;;;;;5031490;28;20033;-80
2022/12/22 09:08:20;;;;;;;4.97;1.95;;;;;;;;;;5031951;28;20444;-77
2022/12/22 09:10:46;;;;;;;3.30;1.63;;;;;;;;;;5034007;28;20033;-83
2022/12/22 09:13:15;;;;;;;4.05;1.80;;;;;;;;;;5026922;28;20034;-81
2022/12/22 09:15:40;;;;;;;2.63;1.67;;;;;;;;;;5039249;28;20025;-83
2022/12/22 09:18:06;;;;;;;4.10;2.08;;;;;;;;;;5034589;28;20037;-82
2022/12/22 09:20:32;;;;;;;4.07;1.90;;;;;;;;;;5032125;28;20119;-83
2022/12/22 09:22:59;;;;;;;3.45;1.90;;;;;;;;;;5030921;28;20022;-83
2022/12/22 09:25:25;;;;;;;3.78;2.00;;;;;;;;;;5029206;28;20021;-78
2022/12/22 09:27:51;;;;;;;2.88;1.90;;;;;;;;;;5030922;28;20018;-84
2022/12/22 09:30:20;;;;;;;3.45;1.73;;;;;;;;;;5035809;28;20083;-85
2022/12/22 09:32:46;;;;;;;3.03;1.80;;;;;;;;;;5028971;28;20032;-85
2022/12/22 09:35:12;;;;;;;2.67;1.83;;;;;;;;;;5030811;28;20040;-87
2022/12/22 09:37:38;;;;;;;2.50;1.67;;;;;;;;;;5025167;28;20342;-88
2022/12/22 09:40:04;;;;;;;4.10;1.60;;;;;;;;;;5036084;28;20044;-84
2022/12/22 09:42:33;;;;;;;2.55;1.70;;;;;;;;;;5040527;28;20476;-85
2022/12/22 09:45:00;;;;;;;2.75;1.75;;;;;;;;;;5031131;28;20029;-84
2022/12/22 09:47:32;;;;;;;2.03;1.60;;;;;;;;;;5036597;28;20476;-84
2022/12/22 09:49:58;;;;;;;2.38;1.60;;;;;;;;;;5028454;28;20436;-82
2022/12/22 09:52:30;;;;;;;2.35;1.60;;;;;;;;;;5030148;28;20080;-82
2022/12/22 09:54:56;;;;;;;2.75;1.83;;;;;;;;;;5027964;28;20535;-85
2022/12/22 09:57:25;;;;;;;2.55;1.67;;;;;;;;;;5031346;28;20404;-85
2022/12/22 09:59:51;;;;;;;2.80;1.73;;;;;;;;;;5029778;28;20128;-87
2022/12/22 10:02:24;;;;;;;2.33;1.55;;;;;;;;;;5042597;28;20050;-86
2022/12/22 10:04:59;;;;;;;2.55;1.45;;;;;;;;;;5028989;28;20025;-86
2022/12/22 10:07:35;;;;;;;2.75;1.50;;;;;;;;;;5024751;28;20030;-83
2022/12/22 10:10:16;;;;;;;2.10;1.60;;;;;;;;;;5024315;28;20353;-89
2022/12/22 10:12:42;;;;;;;1.83;1.50;;;;;;;;;;5027978;28;20130;-81
2022/12/22 10:15:12;;;;;;;3.10;1.63;;;;;;;;;;5030552;28;20034;-83
2022/12/22 10:17:47;;;;;;;2.40;1.30;;;;;;;;;;5030612;28;20115;-86
2022/12/22 10:20:19;;;;;;;1.90;1.50;;;;;;;;;;5025013;28;20061;-85
2022/12/22 10:22:48;;;;;;;1.75;1.42;;;;;;;;;;5027108;28;20431;-84
2022/12/22 10:25:31;;;;;;;2.13;1.58;;;;;;;;;;5024750;28;20034;-79
2022/12/22 10:27:58;;;;;;;2.42;1.27;;;;;;;;;;5026685;28;20117;-78
2022/12/22 10:30:30;;;;;;;2.88;1.52;;;;;;;;;;5027582;28;20579;-85
2022/12/22 10:33:04;;;;;;;2.60;1.90;;;;;;;;;;5019197;28;20041;-76
2022/12/22 10:35:47;;;;;;;2.00;1.40;;;;;;;;;;5026143;28;20117;-77
2022/12/22 10:38:21;;;;;;;2.08;1.38;;;;;;;;;;5025674;28;20040;-75
2022/12/22 10:40:49;;;;;;;2.38;1.45;;;;;;;;;;5027621;28;20154;-76
2022/12/22 10:43:19;;;;;;;2.55;1.40;;;;;;;;;;5023189;28;20029;-76
2022/12/22 10:45:49;;;;;;;1.65;1.25;;;;;;;;;;5029244;28;20044;-76
2022/12/22 10:48:15;;;;;;;1.38;1.10;;;;;;;;;;5028721;28;20112;-78
2022/12/22 10:50:46;;;;;;;1.92;1.27;;;;;;;;;;5025384;28;20033;-77
2022/12/22 10:53:12;;;;;;;1.87;1.30;;;;;;;;;;5025284;28;20029;-77
2022/12/22 10:55:38;;;;;;;2.58;1.30;;;;;;;;;;5028438;28;20103;-78
2022/12/22 10:58:10;;;;;;;2.25;1.35;;;;;;;;;;5027009;28;20048;-78
2022/12/22 11:00:37;;;;;;;2.05;1.38;;;;;;;;;;5031264;28;20109;-77
2022/12/22 11:03:04;;;;;;;5.50;2.35;;;;;;;;;;5026251;28;20041;-77
2022/12/22 11:05:31;;;;;;;3.92;1.30;;;;;;;;;;5025314;28;20037;-76
2022/12/22 11:07:59;;;;;;;7.35;2.30;;;;;;;;;;5022286;28;20037;-76
2022/12/22 11:10:39;;;;;;;14.98;2.90;;;;;;;;;;5021664;28;20064;-76
2022/12/22 11:13:08;;;;;;;4.90;2.03;;;;;;;;;;5028588;28;20033;-75
2022/12/22 11:15:42;;;;;;;7.95;2.15;;;;;;;;;;5025916;28;20454;-76
2022/12/22 11:18:11;;;;;;;7.50;2.15;;;;;;;;;;5029320;28;20026;-75
2022/12/22 11:20:37;;;;;;;9.07;2.65;;;;;;;;;;5027692;28;20499;-76
2022/12/22 11:23:09;;;;;;;5.65;2.00;;;;;;;;;;5027068;28;20037;-75
2022/12/22 11:25:44;;;;;;;4.05;1.90;;;;;;;;;;5030281;28;20029;-75
2022/12/22 11:28:17;;;;;;;7.57;2.47;;;;;;;;;;5028401;28;20488;-76
2022/12/22 11:30:52;;;;;;;11.15;2.08;;;;;;;;;;5018759;28;20144;-76
2022/12/22 11:33:25;;;;;;;8.45;2.50;;;;;;;;;;5027935;28;20415;-76
2022/12/22 11:35:56;;;;;;;4.00;1.77;;;;;;;;;;5029939;28;20036;-76
2022/12/22 11:38:44;;;;;;;3.88;1.75;;;;;;;;;;5025492;28;20060;-76
2022/12/22 11:41:15;;;;;;;6.28;1.90;;;;;;;;;;5018240;28;20100;-76
2022/12/22 11:43:52;;;;;;;11.52;2.17;;;;;;;;;;5024580;28;20476;-75
2022/12/22 11:46:27;;;;;;;7.72;1.98;;;;;;;;;;5026630;28;20041;-76
2022/12/22 11:49:12;;;;;;;3.25;1.50;;;;;;;;;;5030484;28;20075;-76
2022/12/22 11:51:43;;;;;;;7.00;1.80;;;;;;;;;;5028066;28;20514;-78
2022/12/22 11:54:28;;;;;;;5.35;1.52;;;;;;;;;;5025369;28;20041;-79
2022/12/22 11:57:13;;;;;;;4.82;2.22;;;;;;;;;;5028507;28;20025;-77
2022/12/22 11:59:41;;;;;;;6.57;1.50;;;;;;;;;;5026594;28;20025;-76
2022/12/22 12:02:26;;;;;;;4.57;1.73;;;;;;;;;;5038060;28;20033;-80
2022/12/22 12:05:13;;;;;;;5.50;1.50;;;;;;;;;;5028526;28;20064;-81
2022/12/22 12:07:41;;;;;;;4.10;1.98;;;;;;;;;;5028595;28;20035;-78
2022/12/22 12:10:25;;;;;;;2.80;1.60;;;;;;;;;;5026579;28;20033;-80
2022/12/22 12:12:55;;;;;;;4.32;1.42;;;;;;;;;;5027597;28;20032;-80
2022/12/22 12:15:22;;;;;;;4.30;1.38;;;;;;;;;;5017373;28;20451;-78
2022/12/22 12:17:51;;;;;;;2.42;1.40;;;;;;;;;;5028286;28;20025;-78
2022/12/22 12:20:28;;;;;;;6.90;1.77;;;;;;;;;;5028540;28;20044;-79
2022/12/22 12:23:13;;;;;;;5.95;1.80;;;;;;;;;;5032795;28;20083;-79
2022/12/22 12:25:43;;;;;;;5.70;1.98;;;;;;;;;;5026050;28;20538;-79
2022/12/22 12:28:23;;;;;;;3.10;1.70;;;;;;;;;;5026695;28;20030;-78
2022/12/22 12:30:51;;;;;;;4.82;1.77;;;;;;;;;;5027855;28;20057;-78
2022/12/22 12:33:26;;;;;;;3.58;1.70;;;;;;;;;;5029260;28;20108;-79
2022/12/22 12:35:59;;;;;;;4.15;1.85;;;;;;;;;;5024783;28;20025;-79
2022/12/22 12:38:32;;;;;;;4.93;1.52;;;;;;;;;;5027515;28;20021;-79
2022/12/22 12:41:14;;;;;;;2.97;1.40;;;;;;;;;;5028838;28;20082;-82
2022/12/22 12:43:40;;;;;;;3.20;1.58;;;;;;;;;;5027999;28;20033;-82
2022/12/22 12:46:25;;;;;;;3.03;1.67;;;;;;;;;;5025771;28;20053;-78
2022/12/22 12:48:51;;;;;;;3.63;1.58;;;;;;;;;;5030663;28;20558;-76
2022/12/22 12:51:36;;;;;;;3.75;1.70;;;;;;;;;;5027480;28;20021;-74
2022/12/22 12:54:20;;;;;;;1.83;1.35;;;;;;;;;;5029659;28;20064;-84
2022/12/22 12:57:00;;;;;;;3.13;1.58;;;;;;;;;;5027975;28;20017;-77
2022/12/22 12:59:41;;;;;;;1.98;1.33;;;;;;;;;;5028857;28;20033;-80
2022/12/22 13:02:26;;;;;;;3.47;1.65;;;;;;;;;;5030133;28;20428;-83
2022/12/22 13:05:11;;;;;;;2.90;1.30;;;;;;;;;;5029119;28;20028;-81
2022/12/22 13:07:55;;;;;;;3.60;1.50;;;;;;;;;;5026164;28;20025;-81
2022/12/22 13:10:22;;;;;;;3.92;1.88;;;;;;;;;;5026981;28;20025;-81
2022/12/22 13:12:52;;;;;;;2.15;1.33;;;;;;;;;;5033406;28;20083;-80
2022/12/22 13:15:27;;;;;;;2.92;1.50;;;;;;;;;;5031519;28;20234;-81
2022/12/22 13:17:53;;;;;;;3.15;1.30;;;;;;;;;;5029134;28;20029;-80
2022/12/22 13:20:37;;;;;;;3.60;1.27;;;;;;;;;;5030199;28;20025;-80
2022/12/22 13:23:10;;;;;;;4.15;1.40;;;;;;;;;;5036143;28;20025;-81
2022/12/22 13:25:47;;;;;;;3.47;1.50;;;;;;;;;;5035773;28;20120;-81
2022/12/22 13:28:17;;;;;;;3.58;1.25;;;;;;;;;;5030890;28;20435;-84
2022/12/22 13:30:52;;;;;;;3.90;1.45;;;;;;;;;;5033215;28;20530;-82
2022/12/22 13:33:20;;;;;;;1.50;1.20;;;;;;;;;;5030731;28;20026;-82
2022/12/22 13:35:47;;;;;;;2.30;1.38;;;;;;;;;;5027631;28;20041;-83
2022/12/22 13:38:26;;;;;;;3.90;1.33;;;;;;;;;;5028205;28;20026;-84
2022/12/22 13:40:52;;;;;;;1.75;1.30;;;;;;;;;;5032031;28;20029;-82
2022/12/22 13:43:19;;;;;;;2.25;1.33;;;;;;;;;;5026988;28;20665;-77
2022/12/22 13:45:50;;;;;;;3.35;1.38;;;;;;;;;;5034289;28;20029;-78
2022/12/22 13:48:16;;;;;;;4.82;1.42;;;;;;;;;;5030706;28;20037;-78
2022/12/22 13:50:47;;;;;;;5.07;1.33;;;;;;;;;;5030735;28;20073;-78
2022/12/22 13:53:19;;;;;;;1.70;1.20;;;;;;;;;;5029168;28;20488;-80
2022/12/22 13:55:46;;;;;;;3.08;1.52;;;;;;;;;;5028010;28;20057;-74
2022/12/22 13:58:24;;;;;;;1.38;1.20;;;;;;;;;;5028564;28;20041;-76
2022/12/22 14:01:09;;;;;;;1.73;1.48;;;;;;;;;;5024884;28;20086;-78
2022/12/22 14:03:35;;;;;;;2.95;1.58;;;;;;;;;;5028700;28;20710;-79
2022/12/22 14:06:01;;;;;;;1.67;1.23;;;;;;;;;;5037191;28;20476;-78
2022/12/22 14:08:27;;;;;;;2.00;1.50;;;;;;;;;;5032742;28;20036;-78
2022/12/22 14:10:54;;;;;;;1.35;1.13;;;;;;;;;;5029908;28;20112;-79
2022/12/22 14:13:23;;;;;;;1.73;1.17;;;;;;;;;;5043823;28;20026;-79
2022/12/22 14:15:58;;;;;;;1.77;1.10;;;;;;;;;;5027421;28;20551;-79
2022/12/22 14:18:25;;;;;;;1.80;1.40;;;;;;;;;;5029543;28;20124;-79
2022/12/22 14:20:52;;;;;;;2.20;1.58;;;;;;;;;;5031141;28;20044;-79
2022/12/22 14:23:21;;;;;;;2.10;1.35;;;;;;;;;;5027802;28;20040;-79
2022/12/22 14:25:48;;;;;;;1.70;1.30;;;;;;;;;;5042146;28;20048;-79
2022/12/22 14:28:23;;;;;;;4.00;1.50;;;;;;;;;;5024260;28;20071;-79
2022/12/22 14:30:51;;;;;;;1.50;1.20;;;;;;;;;;5025656;28;20395;-83
2022/12/22 14:33:26;;;;;;;3.00;1.50;;;;;;;;;;5026148;28;20094;-81
2022/12/22 14:36:03;;;;;;;2.83;1.55;;;;;;;;;;5041509;28;20059;-81
2022/12/22 14:38:37;;;;;;;2.03;1.20;;;;;;;;;;5027421;28;20480;-81
2022/12/22 14:41:09;;;;;;;4.00;1.38;;;;;;;;;;5031559;28;20033;-83
2022/12/22 14:43:35;;;;;;;1.30;1.20;;;;;;;;;;5036080;28;20033;-84
2022/12/22 14:46:04;;;;;;;1.98;1.17;;;;;;;;;;5031082;28;20035;-78
2022/12/22 14:48:32;;;;;;;2.83;1.10;;;;;;;;;;5028375;28;20026;-79
2022/12/22 14:50:58;;;;;;;2.15;0.98;;;;;;;;;;5036424;28;20116;-79
2022/12/22 14:53:26;;;;;;;3.65;1.23;;;;;;;;;;5027181;28;20037;-79
2022/12/22 14:55:52;;;;;;;3.00;1.25;;;;;;;;;;5034333;28;20036;-79
2022/12/22 14:58:28;;;;;;;2.60;1.20;;;;;;;;;;5033525;28;20389;-78
2022/12/22 15:01:12;;;;;;;1.00;0.77;;;;;;;;;;5027548;28;20056;-79
2022/12/22 15:03:39;;;;;;;1.45;0.90;;;;;;;;;;5029364;28;20018;-78
2022/12/22 15:06:24;;;;;;;1.35;1.15;;;;;;;;;;5034580;28;20060;-78
2022/12/22 15:08:52;;;;;;;1.90;1.20;;;;;;;;;;5020027;28;20025;-79
2022/12/22 15:11:19;;;;;;;1.42;1.30;;;;;;;;;;5029022;28;20472;-79
2022/12/22 15:13:46;;;;;;;1.00;0.90;;;;;;;;;;5026961;28;20037;-79
2022/12/22 15:16:15;;;;;;;4.18;1.10;;;;;;;;;;5028909;28;20492;-79
2022/12/22 15:18:41;;;;;;;1.67;1.27;;;;;;;;;;5037629;28;20506;-79
2022/12/22 15:21:09;;;;;;;2.45;1.17;;;;;;;;;;5027036;28;20029;-79
2022/12/22 15:23:35;;;;;;;1.52;1.10;;;;;;;;;;5027005;28;20036;-79
2022/12/22 15:26:01;;;;;;;1.17;1.00;;;;;;;;;;5034291;28;20037;-79
2022/12/22 15:28:27;;;;;;;2.05;1.00;;;;;;;;;;5026304;28;20021;-79
2022/12/22 15:30:52;;;;;;;1.35;1.02;;;;;;;;;;5027429;28;20054;-79
2022/12/22 15:33:19;;;;;;;1.30;1.20;;;;;;;;;;5030716;28;20040;-80
2022/12/22 15:35:45;;;;;;;1.50;1.30;;;;;;;;;;5024578;28;20039;-79
2022/12/22 15:38:18;;;;;;;1.70;1.13;;;;;;;;;;5031896;28;20033;-79
2022/12/22 15:40:44;;;;;;;2.25;0.95;;;;;;;;;;5040587;28;20033;-80
2022/12/22 15:43:10;;;;;;;2.20;1.30;;;;;;;;;;5028415;28;20021;-79
2022/12/22 15:45:37;;;;;;;1.40;1.13;;;;;;;;;;5025563;28;20043;-79
2022/12/22 15:48:04;;;;;;;1.25;0.93;;;;;;;;;;5029534;28;20034;-79
2022/12/22 15:50:35;;;;;;;1.38;1.02;;;;;;;;;;5024936;28;20048;-80
2022/12/22 15:53:03;;;;;;;1.75;1.27;;;;;;;;;;5019006;28;22293;-80
2022/12/22 15:55:30;;;;;;;1.00;0.90;;;;;;;;;;5027158;28;20036;-79
2022/12/22 15:57:57;;;;;;;1.73;1.20;;;;;;;;;;5027278;28;20021;-80
2022/12/22 16:00:23;;;;;;;3.55;1.27;;;;;;;;;;5024075;28;20107;-80
2022/12/22 16:02:49;;;;;;;1.85;1.10;;;;;;;;;;5025418;28;20477;-79
2022/12/22 16:05:16;;;;;;;1.40;0.90;;;;;;;;;;5032734;28;20035;-78
2022/12/22 16:07:43;;;;;;;4.10;1.50;;;;;;;;;;5028144;28;20029;-78
2022/12/22 16:10:22;;;;;;;2.88;1.10;;;;;;;;;;5028065;28;20018;-79
2022/12/22 16:12:53;;;;;;;1.00;0.90;;;;;;;;;;5028923;28;20365;-78
2022/12/22 16:15:20;;;;;;;1.38;1.10;;;;;;;;;;5027747;28;20075;-78
2022/12/22 16:17:46;;;;;;;1.60;1.15;;;;;;;;;;5036853;28;20549;-78
2022/12/22 16:20:12;;;;;;;1.95;1.23;;;;;;;;;;5026577;28;20408;-79
2022/12/22 16:22:38;;;;;;;1.88;1.10;;;;;;;;;;5028345;28;20025;-82
2022/12/22 16:25:06;;;;;;;2.03;1.00;;;;;;;;;;5028104;28;20117;-75
2022/12/22 16:27:32;;;;;;;1.83;1.13;;;;;;;;;;5031231;28;20067;-76
2022/12/22 16:29:58;;;;;;;1.70;1.15;;;;;;;;;;5024616;28;20032;-77
2022/12/22 16:32:25;;;;;;;1.88;1.10;;;;;;;;;;5023603;28;20641;-77
2022/12/22 16:34:51;;;;;;;3.40;1.10;;;;;;;;;;5028209;28;20185;-77
2022/12/22 16:37:17;;;;;;;5.07;1.13;;;;;;;;;;5025163;28;20026;-77
2022/12/22 16:39:44;;;;;;;1.70;1.00;;;;;;;;;;5029327;28;20121;-77
2022/12/22 16:42:14;;;;;;;2.72;1.10;;;;;;;;;;5023722;28;20151;-79
2022/12/22 16:44:43;;;;;;;1.85;1.30;;;;;;;;;;5031463;28;20033;-78
2022/12/22 16:47:17;;;;;;;1.20;1.10;;;;;;;;;;5029717;28;20235;-79
2022/12/22 16:49:44;;;;;;;1.00;0.90;;;;;;;;;;5033774;28;20112;-78
2022/12/22 16:52:23;;;;;;;1.98;1.15;;;;;;;;;;5027790;28;20472;-76
2022/12/22 16:54:49;;;;;;;1.65;1.02;;;;;;;;;;5023967;28;20060;-77
2022/12/22 16:57:15;;;;;;;2.00;1.33;;;;;;;;;;5030445;28;20058;-78
2022/12/22 16:59:41;;;;;;;1.92;1.20;;;;;;;;;;5035034;28;20038;-76
2022/12/22 17:02:34;;;;;;;3.33;1.10;;;;;;;;;;5027486;28;20048;-76
2022/12/22 17:05:00;;;;;;;2.92;1.10;;;;;;;;;;5029919;28;20033;-75
2022/12/22 17:07:27;;;;;;;1.20;1.02;;;;;;;;;;5025020;28;20488;-76
2022/12/22 17:09:56;;;;;;;1.65;1.10;;;;;;;;;;5027730;28;20415;-76
2022/12/22 17:12:24;;;;;;;1.50;1.20;;;;;;;;;;5032413;28;20095;-75
2022/12/22 17:14:51;;;;;;;1.50;1.10;;;;;;;;;;5025367;28;20029;-76
2022/12/22 17:17:18;;;;;;;2.38;1.27;;;;;;;;;;5025912;28;20074;-76
2022/12/22 17:19:44;;;;;;;1.95;1.35;;;;;;;;;;5031572;28;20560;-77
2022/12/22 17:22:20;;;;;;;1.83;1.10;;;;;;;;;;5035493;28;20026;-78
2022/12/22 17:24:46;;;;;;;1.48;1.00;;;;;;;;;;5028726;28;20021;-78
2022/12/22 17:27:13;;;;;;;1.58;1.17;;;;;;;;;;5034292;28;20028;-76
2022/12/22 17:29:39;;;;;;;1.33;1.10;;;;;;;;;;5028902;28;20033;-77
2022/12/22 17:32:05;;;;;;;2.58;1.27;;;;;;;;;;5035051;28;20420;-76
2022/12/22 17:34:31;;;;;;;0.75;0.75;;;;;;;;;;5027111;28;20504;-75
2022/12/22 17:36:58;;;;;;;2.15;1.23;;;;;;;;;;5028748;28;20037;-76
2022/12/22 17:39:24;;;;;;;1.63;1.15;;;;;;;;;;5027448;28;20084;-76
2022/12/22 17:41:50;;;;;;;1.17;0.93;;;;;;;;;;5024468;28;20097;-77
2022/12/22 17:44:21;;;;;;;1.83;1.30;;;;;;;;;;5029400;28;20031;-75
2022/12/22 17:46:47;;;;;;;1.70;1.13;;;;;;;;;;5027396;28;20039;-75
2022/12/22 17:49:18;;;;;;;5.25;2.03;;;;;;;;;;5023126;28;20029;-75
2022/12/22 17:51:44;;;;;;;6.47;2.45;;;;;;;;;;5028516;28;20032;-77
2022/12/22 17:54:27;;;;;;;8.40;3.28;;;;;;;;;;5035837;28;20029;-77
2022/12/22 17:56:54;;;;;;;10.13;3.78;;;;;;;;;;5029279;28;20026;-77
2022/12/22 17:59:20;;;;;;;9.55;3.42;;;;;;;;;;5034095;28;20037;-76
2022/12/22 18:01:46;;;;;;;13.68;3.80;;;;;;;;;;5026676;28;20025;-81
2022/12/22 18:04:12;;;;;;;8.48;3.60;;;;;;;;;;5037078;28;20043;-79
2022/12/22 18:06:39;;;;;;;13.68;3.20;;;;;;;;;;5029378;28;20051;-76
2022/12/22 18:09:06;;;;;;;8.52;2.95;;;;;;;;;;5025802;28;20033;-76
2022/12/22 18:11:32;;;;;;;13.77;3.05;;;;;;;;;;5025337;28;20061;-78
2022/12/22 18:13:59;;;;;;;8.90;2.83;;;;;;;;;;5027355;28;20405;-76
2022/12/22 18:16:25;;;;;;;8.77;2.92;;;;;;;;;;5036994;28;20033;-76
2022/12/22 18:18:51;;;;;;;5.50;2.85;;;;;;;;;;5028234;28;20112;-76
2022/12/22 18:21:21;;;;;;;9.10;2.88;;;;;;;;;;5029002;28;20108;-76
2022/12/22 18:23:47;;;;;;;8.75;2.60;;;;;;;;;;5023167;28;20094;-77
2022/12/22 18:26:19;;;;;;;8.32;2.80;;;;;;;;;;5037884;28;20889;-77
2022/12/22 18:28:45;;;;;;;9.52;2.65;;;;;;;;;;5028952;28;20510;-77
2022/12/22 18:31:11;;;;;;;6.22;2.88;;;;;;;;;;5027832;28;20073;-77
2022/12/22 18:33:37;;;;;;;9.50;3.03;;;;;;;;;;5026419;28;20436;-78